»·PEaware :: N160RA KAJO-KVCV

N160RA :: KAJO-KVCV

FLIGHT INFORMATION

Flight Status: Arrived
Operator: Privately registered:
United States
More flights under this callsign
Pilot: Cody B. (17747)
Aircraft: CESSNA 172 SKYHAWK
(C172)
More flights by this aircraft type
Origin: KAJO Corona Mun
United States
Destination: KVCV Socal Logistics
United States
More flights between these airports :: More routes between these airports
Route: PDZ V442 APLES
File this flight plan on PilotEdge
Remarks: I-11 Rating
Altitude:
(Current/Filed)
9,000ft
Speed:
(Current/Filed)
110kts
Departed: 13-Feb-20 12:20 PM
Arrived: 13-Feb-20 01:55 PM
Distance/Time
Traveled:
0nm/1:35
Distance/Time
To Go:
Arrived

Flight Plot

Page will automatically refresh every two minutes.


Map Options




Map Legend


Flown Route
Filed Route
Departure Airport
Arrival Airport
Navaid (VOR, NDB)
Fix

Horizontal Profiles

Position Reports

Time Latitude Longitude Heading Altitude Ground
Speed
13-Feb-20 11:24 33.896558 -117.602076 92 537ft 0kts
13-Feb-20 11:25 33.896558 -117.602076 92 537ft 0kts
13-Feb-20 11:26 33.896558 -117.602076 92 537ft 0kts
13-Feb-20 11:27 33.896558 -117.602076 92 537ft 0kts
13-Feb-20 11:28 33.896558 -117.602076 92 537ft 0kts
13-Feb-20 11:29 33.896558 -117.602076 92 537ft 0kts
13-Feb-20 11:30 33.896558 -117.602076 92 537ft 0kts
13-Feb-20 11:31 33.896558 -117.602076 92 537ft 0kts
13-Feb-20 11:32 33.896558 -117.602076 92 537ft 0kts
13-Feb-20 11:33 33.896558 -117.602076 92 537ft 0kts
13-Feb-20 11:34 33.896558 -117.602076 92 537ft 0kts
13-Feb-20 11:35 33.896558 -117.602076 92 537ft 0kts
13-Feb-20 11:36 33.896558 -117.602076 92 537ft 0kts
13-Feb-20 11:37 33.896558 -117.602076 92 537ft 0kts
13-Feb-20 11:38 33.896558 -117.602076 92 537ft 0kts
13-Feb-20 11:39 33.896558 -117.602076 92 537ft 0kts
13-Feb-20 11:40 33.896558 -117.602076 92 537ft 0kts
13-Feb-20 11:41 33.896558 -117.602076 92 537ft 0kts
13-Feb-20 11:42 33.896558 -117.602076 92 537ft 0kts
13-Feb-20 11:43 33.896558 -117.602076 92 537ft 0kts
13-Feb-20 11:44 33.896558 -117.602076 92 537ft 0kts
13-Feb-20 11:45 33.896558 -117.602076 92 537ft 0kts
13-Feb-20 11:46 33.896558 -117.602076 92 537ft 0kts
13-Feb-20 11:47 33.896558 -117.602076 92 537ft 0kts
13-Feb-20 11:48 33.896558 -117.602076 92 537ft 0kts
13-Feb-20 11:49 33.896558 -117.602076 92 537ft 0kts
13-Feb-20 11:50 33.896558 -117.602076 92 537ft 0kts
13-Feb-20 11:51 33.896558 -117.602076 92 537ft 0kts
13-Feb-20 11:52 33.896558 -117.602076 92 537ft 0kts
13-Feb-20 11:53 33.896558 -117.602076 92 537ft 0kts
13-Feb-20 11:54 33.896558 -117.602076 92 537ft 0kts
13-Feb-20 11:55 33.896558 -117.602076 92 537ft 0kts
13-Feb-20 11:56 33.896558 -117.602076 92 537ft 0kts
13-Feb-20 11:57 33.896558 -117.602076 92 537ft 0kts
13-Feb-20 11:58 33.896558 -117.602076 92 537ft 0kts
13-Feb-20 11:59 33.896558 -117.602076 92 537ft 0kts
13-Feb-20 12:00 33.896558 -117.602076 92 537ft 0kts
13-Feb-20 12:01 33.896558 -117.602075 92 537ft 0kts
13-Feb-20 12:02 33.896558 -117.602076 92 537ft 0kts
13-Feb-20 12:03 33.896558 -117.602076 92 537ft 0kts
13-Feb-20 12:04 33.896558 -117.602076 92 537ft 0kts
13-Feb-20 12:05 33.896558 -117.602076 92 537ft 0kts
13-Feb-20 12:06 33.896558 -117.602076 92 537ft 0kts
13-Feb-20 12:07 33.896558 -117.602076 92 537ft 0kts
13-Feb-20 12:08 33.896558 -117.602076 92 537ft 0kts
13-Feb-20 12:09 33.896558 -117.602076 92 537ft 0kts
13-Feb-20 12:10 33.896558 -117.602076 92 537ft 0kts
13-Feb-20 12:11 33.896558 -117.602076 92 537ft 0kts
13-Feb-20 12:12 33.896558 -117.602076 92 537ft 0kts
13-Feb-20 12:13 33.896706 -117.601963 353 537ft 3kts
13-Feb-20 12:14 33.896797 -117.601975 356 537ft 0kts
13-Feb-20 12:15 33.896832 -117.601981 352 537ft 1kts
13-Feb-20 12:16 33.897234 -117.604286 268 537ft 10kts
13-Feb-20 12:17 33.897195 -117.607319 268 537ft 6kts
13-Feb-20 12:18 33.897286 -117.607644 10 537ft 0kts
13-Feb-20 12:19 33.897629 -117.605039 88 537ft 53kts
13-Feb-20 12:20 33.902127 -117.582519 59 1155ft 79kts
13-Feb-20 12:21 33.911266 -117.558012 67 1885ft 82kts
13-Feb-20 12:22 33.919614 -117.533937 34 2646ft 74kts
13-Feb-20 12:23 33.939796 -117.523698 25 3286ft 79kts
13-Feb-20 12:24 33.938467 -117.507348 160 3910ft 77kts
13-Feb-20 12:25 33.920667 -117.523598 249 4437ft 92kts
13-Feb-20 12:26 33.933259 -117.536839 54 5000ft 83kts
13-Feb-20 12:27 33.939446 -117.511344 123 5536ft 79kts
13-Feb-20 12:28 33.920541 -117.521934 227 6013ft 90kts
13-Feb-20 12:30 33.918305 -117.543373 3 6478ft 89kts
13-Feb-20 12:31 33.937113 -117.525783 45 6915ft 87kts
13-Feb-20 12:32 33.933177 -117.511364 205 7326ft 89kts
13-Feb-20 12:33 33.923627 -117.536328 308 7774ft 90kts
13-Feb-20 12:34 33.942809 -117.527850 45 8156ft 83kts
13-Feb-20 12:35 33.936860 -117.512366 182 8506ft 82kts
13-Feb-20 12:36 33.919938 -117.531041 235 8859ft 89kts
13-Feb-20 12:37 33.936302 -117.544488 37 9010ft 107kts
13-Feb-20 12:38 33.956770 -117.516485 93 9001ft 115kts
13-Feb-20 12:39 33.932742 -117.516873 221 9003ft 122kts
13-Feb-20 12:40 33.924021 -117.551320 320 9001ft 131kts
13-Feb-20 12:41 33.952735 -117.537273 47 9003ft 123kts
13-Feb-20 12:42 33.938036 -117.520122 209 9003ft 121kts
13-Feb-20 12:43 33.910843 -117.544390 210 9001ft 121kts
13-Feb-20 12:44 33.923191 -117.569508 25 9000ft 125kts
13-Feb-20 12:45 33.947589 -117.540883 52 9003ft 122kts
13-Feb-20 12:46 33.930928 -117.521063 193 9002ft 119kts
13-Feb-20 12:46 33.924672 -117.547461 322 9000ft 130kts
13-Feb-20 12:48 33.957416 -117.527476 44 9003ft 123kts
13-Feb-20 12:49 33.966597 -117.496330 149 9000ft 115kts
13-Feb-20 12:49 33.944471 -117.511356 221 9003ft 123kts
13-Feb-20 12:50 33.925217 -117.543386 281 8999ft 130kts
13-Feb-20 12:52 33.958025 -117.539465 42 9003ft 123kts
13-Feb-20 12:52 33.979033 -117.516272 74 8999ft 119kts
13-Feb-20 12:53 33.957357 -117.495830 163 9003ft 116kts
13-Feb-20 12:54 33.930529 -117.514683 222 9003ft 123kts
13-Feb-20 12:55 33.915595 -117.549181 298 9000ft 131kts
13-Feb-20 12:56 33.942394 -117.541502 56 9003ft 121kts
13-Feb-20 12:57 33.949068 -117.503018 90 9003ft 116kts
13-Feb-20 12:58 33.926908 -117.488018 222 9000ft 120kts
13-Feb-20 12:59 33.921461 -117.528414 283 8999ft 128kts
13-Feb-20 13:00 33.949237 -117.527862 42 9003ft 120kts
13-Feb-20 13:01 33.975271 -117.502108 42 9003ft 121kts
13-Feb-20 13:02 34.002382 -117.477681 30 9003ft 123kts
13-Feb-20 13:03 34.033072 -117.459401 29 9003ft 123kts
13-Feb-20 13:04 34.064011 -117.440935 29 9003ft 124kts
13-Feb-20 13:05 34.094969 -117.422441 29 9005ft 124kts
13-Feb-20 13:06 34.125896 -117.404307 28 9009ft 123kts
13-Feb-20 13:07 34.156284 -117.386380 29 9014ft 122kts
13-Feb-20 13:08 34.184116 -117.369673 29 9019ft 102kts
13-Feb-20 13:09 34.212208 -117.352738 29 9025ft 118kts
13-Feb-20 13:10 34.242050 -117.334759 29 9030ft 120kts
13-Feb-20 13:11 34.272089 -117.316655 29 9030ft 120kts
13-Feb-20 13:12 34.302266 -117.298450 29 9030ft 121kts
13-Feb-20 13:13 34.332589 -117.280141 29 9031ft 121kts
13-Feb-20 13:14 34.362709 -117.261930 29 9030ft 121kts
13-Feb-20 13:15 34.392936 -117.243652 29 9030ft 121kts
13-Feb-20 13:16 34.423000 -117.225455 29 9030ft 121kts
13-Feb-20 13:17 34.453227 -117.207132 29 9031ft 121kts
13-Feb-20 13:18 34.483455 -117.188812 29 9030ft 121kts
13-Feb-20 13:19 34.513451 -117.170609 29 9030ft 121kts
13-Feb-20 13:20 34.543755 -117.152545 27 9022ft 122kts
13-Feb-20 13:21 34.575615 -117.141916 353 9040ft 123kts
13-Feb-20 13:22 34.609409 -117.144647 357 8887ft 121kts
13-Feb-20 13:23 34.643919 -117.151465 346 8407ft 129kts
13-Feb-20 13:24 34.678175 -117.166114 336 7910ft 131kts
13-Feb-20 13:25 34.710009 -117.188230 325 7411ft 132kts
13-Feb-20 13:26 34.738130 -117.217099 314 6913ft 132kts
13-Feb-20 13:27 34.761470 -117.251682 304 6392ft 131kts
13-Feb-20 13:28 34.778262 -117.288137 294 5685ft 118kts
13-Feb-20 13:29 34.788741 -117.323249 285 5307ft 93kts
13-Feb-20 13:30 34.793833 -117.352152 278 5265ft 92kts
13-Feb-20 13:31 34.786623 -117.378629 177 5264ft 95kts
13-Feb-20 13:32 34.758899 -117.374356 181 5038ft 107kts
13-Feb-20 13:33 34.728814 -117.376562 181 4742ft 109kts
13-Feb-20 13:34 34.698445 -117.379792 185 4477ft 108kts
13-Feb-20 13:35 34.670936 -117.383057 182 4049ft 89kts
13-Feb-20 13:36 34.647905 -117.385132 182 3553ft 78kts
13-Feb-20 13:37 34.625201 -117.387089 182 3277ft 93kts
13-Feb-20 13:38 34.605549 -117.398960 276 3721ft 92kts
13-Feb-20 13:39 34.619473 -117.427199 303 4237ft 102kts
13-Feb-20 13:40 34.627333 -117.461349 278 4743ft 107kts
13-Feb-20 13:41 34.631048 -117.497669 276 5248ft 107kts
13-Feb-20 13:42 34.634418 -117.533751 275 5751ft 106kts
13-Feb-20 13:43 34.637779 -117.570268 274 6029ft 115kts
13-Feb-20 13:44 34.653505 -117.576879 102 5741ft 110kts
13-Feb-20 13:45 34.636657 -117.546374 109 5571ft 108kts
13-Feb-20 13:46 34.644884 -117.517555 0 5480ft 115kts
13-Feb-20 13:47 34.641241 -117.537425 148 5483ft 105kts
13-Feb-20 13:48 34.632244 -117.508552 82 5407ft 110kts
13-Feb-20 13:49 34.618840 -117.477830 144 5409ft 107kts
13-Feb-20 13:50 34.602334 -117.450068 94 5192ft 113kts
13-Feb-20 13:51 34.618603 -117.421613 17 4724ft 117kts
13-Feb-20 13:52 34.644590 -117.408173 80 4302ft 85kts
13-Feb-20 13:53 34.632579 -117.386673 177 3312ft 88kts
13-Feb-20 13:54 34.614861 -117.386731 181 2819ft 30kts
13-Feb-20 13:55 34.610581 -117.385869 102 2827ft 6kts
13-Feb-20 13:56 34.609373 -117.384161 179 2830ft 14kts
13-Feb-20 13:57 34.601698 -117.384089 179 2842ft 33kts
13-Feb-20 13:58 34.594851 -117.383859 151 2855ft 13kts
13-Feb-20 13:59 34.591395 -117.379738 134 2865ft 23kts
13-Feb-20 14:00 34.588430 -117.375959 162 2870ft 10kts
13-Feb-20 14:01 34.588283 -117.376362 313 2871ft 0kts
13-Feb-20 14:02 34.588283 -117.376362 313 2871ft 0kts
13-Feb-20 14:03 34.588283 -117.376362 313 2871ft 0kts
13-Feb-20 14:05 33.896978 -117.607296 180 537ft 0kts
13-Feb-20 14:06 33.896978 -117.607296 180 537ft 0kts
13-Feb-20 14:07 33.896978 -117.607296 180 537ft 0kts
13-Feb-20 14:08 33.896978 -117.607296 180 537ft 0kts

Navigation Log

Ident Type
Flight plan parsing failed, navigation log unavailable